Time;durP1;ratioP1;P1;durP2;ratioP2;P2;SDS_P1;SDS_P2;PMS_P1;PMS_P2;Temp;Humidity;BMP_temperature;BMP_pressure;BME280_temperature;BME280_humidity;BME280_pressure;Samples;Min_cycle;Max_cycle;Signal;HPM_P1;HPM_P2
2021/04/30 00:02:15;;;;;;;1.50;1.30;;;7.10;94.80;;;;;;5022273;28;20481;-81
2021/04/30 00:04:41;;;;;;;1.50;1.20;;;7.10;94.70;;;;;;5032641;28;20869;-80
2021/04/30 00:07:08;;;;;;;1.50;1.20;;;7.10;94.70;;;;;;5028201;28;20821;-81
2021/04/30 00:09:34;;;;;;;1.50;1.20;;;7.10;94.60;;;;;;5007919;28;20551;-79
2021/04/30 00:12:01;;;;;;;1.50;1.20;;;7.10;94.30;;;;;;5008334;28;20534;-79
2021/04/30 00:14:28;;;;;;;1.50;1.20;;;7.20;94.20;;;;;;5009232;28;20567;-79
2021/04/30 00:16:54;;;;;;;1.50;1.20;;;7.20;94.20;;;;;;5016453;28;20489;-79
2021/04/30 00:19:21;;;;;;;1.50;1.20;;;7.20;94.10;;;;;;5035442;28;20474;-79
2021/04/30 00:21:47;;;;;;;1.50;1.20;;;7.20;94.30;;;;;;5018384;28;20513;-80
2021/04/30 00:24:15;;;;;;;1.50;1.30;;;7.20;94.30;;;;;;5026862;28;20558;-82
2021/04/30 00:26:42;;;;;;;1.50;1.20;;;7.20;94.30;;;;;;5026405;28;20566;-80
2021/04/30 00:29:08;;;;;;;1.50;1.10;;;7.30;94.10;;;;;;5011058;28;565242;-80
2021/04/30 00:31:36;;;;;;;1.50;1.20;;;7.30;94.20;;;;;;5019912;28;20498;-79
2021/04/30 00:34:03;;;;;;;1.50;1.20;;;7.30;94.20;;;;;;5015518;28;20838;-80
2021/04/30 00:36:29;;;;;;;1.50;1.30;;;7.30;94.10;;;;;;5003984;28;20509;-80
2021/04/30 00:38:56;;;;;;;1.50;1.20;;;7.30;94.20;;;;;;5036725;28;20539;-80
2021/04/30 00:41:23;;;;;;;1.60;1.30;;;7.20;93.90;;;;;;5017090;28;20483;-80
2021/04/30 00:43:49;;;;;;;1.50;1.23;;;7.20;94.30;;;;;;5014295;28;20472;-79
2021/04/30 00:46:16;;;;;;;1.50;1.30;;;7.20;94.10;;;;;;5016958;28;20627;-79
2021/04/30 00:48:43;;;;;;;1.50;1.23;;;7.30;94.10;;;;;;5034015;28;20982;-80
2021/04/30 00:51:09;;;;;;;1.50;1.10;;;7.30;93.80;;;;;;5013308;28;20577;-81
2021/04/30 00:53:35;;;;;;;1.50;1.20;;;7.30;94.10;;;;;;5023626;28;21044;-80
2021/04/30 00:56:02;;;;;;;1.50;1.20;;;7.30;93.90;;;;;;5020828;28;20455;-81
2021/04/30 00:58:28;;;;;;;1.50;1.20;;;7.40;93.70;;;;;;5024091;28;20469;-81
2021/04/30 01:00:55;;;;;;;1.50;1.20;;;7.40;94.10;;;;;;4990438;28;21185;-80
2021/04/30 01:03:21;;;;;;;1.50;1.13;;;7.40;94.10;;;;;;5019050;28;20530;-82
2021/04/30 01:05:48;;;;;;;1.50;1.20;;;7.30;94.10;;;;;;4997957;28;20465;-79
2021/04/30 01:08:14;;;;;;;1.50;1.20;;;7.40;93.90;;;;;;5035892;28;20477;-79
2021/04/30 01:10:41;;;;;;;1.50;1.20;;;7.30;93.90;;;;;;5000706;28;20484;-80
2021/04/30 01:13:07;;;;;;;1.50;1.10;;;7.40;93.70;;;;;;5010353;28;20903;-80
2021/04/30 01:15:34;;;;;;;1.50;1.17;;;7.40;93.90;;;;;;5008358;28;20472;-80
2021/04/30 01:18:01;;;;;;;1.50;1.20;;;7.40;93.90;;;;;;5016864;28;20479;-81
2021/04/30 01:20:27;;;;;;;1.50;1.10;;;7.40;94.30;;;;;;5013420;28;20539;-80
2021/04/30 01:22:55;;;;;;;1.50;1.20;;;7.40;94.30;;;;;;5016408;28;20486;-81
2021/04/30 01:25:24;;;;;;;1.50;1.20;;;7.40;94.20;;;;;;5014366;28;20475;-80
2021/04/30 01:27:50;;;;;;;1.50;1.20;;;7.40;94.20;;;;;;5002923;28;21033;-79
2021/04/30 01:30:20;;;;;;;1.50;1.20;;;7.40;94.20;;;;;;5024320;28;21057;-80
2021/04/30 01:32:46;;;;;;;1.50;1.10;;;7.40;94.10;;;;;;5025424;28;20584;-79
2021/04/30 01:35:20;;;;;;;1.50;1.20;;;7.40;94.00;;;;;;5015447;28;20866;-79
2021/04/30 01:37:47;;;;;;;1.50;1.20;;;7.40;94.20;;;;;;5016456;28;21014;-79
2021/04/30 01:40:17;;;;;;;1.50;1.20;;;7.40;94.00;;;;;;5023643;28;21032;-81
2021/04/30 01:43:01;;;;;;;1.50;1.20;;;7.40;94.00;;;;;;5030623;28;20474;-80
2021/04/30 01:45:31;;;;;;;1.50;1.30;;;7.40;93.90;;;;;;5013354;28;20844;-82
2021/04/30 01:47:57;;;;;;;1.50;1.20;;;7.40;94.00;;;;;;5020709;28;20984;-82
2021/04/30 01:50:24;;;;;;;1.50;1.20;;;7.40;94.20;;;;;;5006694;28;20595;-80
2021/04/30 01:52:50;;;;;;;1.50;1.20;;;7.50;93.70;;;;;;5006610;28;20869;-80
2021/04/30 01:55:17;;;;;;;1.50;1.20;;;7.50;93.70;;;;;;5000703;28;20474;-80
2021/04/30 01:57:46;;;;;;;1.50;1.20;;;7.50;93.80;;;;;;5020187;28;20489;-80
2021/04/30 02:00:22;;;;;;;1.50;1.20;;;7.50;93.60;;;;;;5000866;28;20489;-80
2021/04/30 02:02:51;;;;;;;1.50;1.20;;;7.60;93.60;;;;;;5022021;28;21182;-80
2021/04/30 02:05:18;;;;;;;1.50;1.20;;;7.60;93.70;;;;;;5027608;28;21019;-80
2021/04/30 02:07:45;;;;;;;1.50;1.20;;;7.60;93.60;;;;;;5023722;28;20492;-81
2021/04/30 02:10:15;;;;;;;1.50;1.20;;;7.60;93.60;;;;;;5021899;28;20880;-81
2021/04/30 02:12:44;;;;;;;1.50;1.30;;;7.60;93.70;;;;;;5022437;28;20474;-80
2021/04/30 02:15:13;;;;;;;1.50;1.10;;;7.60;93.30;;;;;;5008359;28;20492;-80
2021/04/30 02:17:40;;;;;;;1.50;1.10;;;7.60;93.20;;;;;;5005624;28;20762;-80
2021/04/30 02:20:07;;;;;;;1.50;1.20;;;7.60;93.40;;;;;;5017774;28;21095;-80
2021/04/30 02:22:34;;;;;;;1.50;1.10;;;7.60;93.40;;;;;;5022236;28;20484;-80
2021/04/30 02:25:01;;;;;;;1.50;1.17;;;7.60;93.50;;;;;;5015376;28;21026;-80
2021/04/30 02:27:27;;;;;;;1.50;1.17;;;7.60;93.10;;;;;;5024205;28;20504;-81
2021/04/30 02:29:54;;;;;;;1.50;1.10;;;7.60;93.40;;;;;;5023697;28;20576;-80
2021/04/30 02:32:22;;;;;;;1.50;1.20;;;7.60;93.50;;;;;;4997401;28;20660;-80
2021/04/30 02:34:49;;;;;;;1.50;1.20;;;7.60;93.40;;;;;;5006162;28;20500;-81
2021/04/30 02:37:15;;;;;;;1.50;1.20;;;7.60;93.60;;;;;;5024110;28;20481;-80
2021/04/30 02:39:42;;;;;;;1.50;1.13;;;7.60;93.70;;;;;;5011917;28;20489;-81
2021/04/30 02:42:08;;;;;;;1.50;1.20;;;7.50;93.80;;;;;;5001738;28;20589;-80
2021/04/30 02:44:34;;;;;;;1.50;1.20;;;7.50;93.80;;;;;;5009786;28;20464;-80
2021/04/30 02:47:02;;;;;;;1.50;1.10;;;7.50;93.90;;;;;;5006285;28;20575;-80
2021/04/30 02:49:39;;;;;;;1.50;1.20;;;7.50;93.80;;;;;;4997693;28;20500;-80
2021/04/30 02:52:06;;;;;;;1.50;1.10;;;7.50;93.80;;;;;;5023487;28;20524;-81
2021/04/30 02:54:32;;;;;;;1.50;1.10;;;7.50;93.80;;;;;;5028617;28;20467;-83
2021/04/30 02:56:58;;;;;;;1.50;1.20;;;7.60;93.80;;;;;;5028358;28;20483;-80
2021/04/30 02:59:25;;;;;;;1.50;1.20;;;7.50;93.80;;;;;;5020000;28;20469;-80
2021/04/30 03:01:51;;;;;;;1.50;1.27;;;7.50;93.80;;;;;;5020517;28;20476;-81
2021/04/30 03:04:18;;;;;;;1.50;1.10;;;7.50;93.80;;;;;;5020215;28;20452;-79
2021/04/30 03:06:45;;;;;;;1.50;1.20;;;7.50;94.00;;;;;;5003106;28;21035;-81
2021/04/30 03:09:11;;;;;;;1.50;1.20;;;7.50;93.80;;;;;;5007215;28;20739;-80
2021/04/30 03:11:37;;;;;;;1.50;1.20;;;7.50;93.90;;;;;;5001765;28;20482;-81
2021/04/30 03:14:04;;;;;;;1.50;1.10;;;7.50;94.20;;;;;;5015999;28;20742;-81
2021/04/30 03:16:31;;;;;;;1.50;1.30;;;7.60;94.40;;;;;;4995940;28;20486;-81
2021/04/30 03:18:57;;;;;;;1.50;1.20;;;7.60;94.20;;;;;;5035492;28;20464;-80
2021/04/30 03:21:24;;;;;;;1.50;1.20;;;7.60;94.30;;;;;;5015190;28;20486;-80
2021/04/30 03:23:51;;;;;;;1.50;1.20;;;7.60;94.10;;;;;;5026743;28;20977;-82
2021/04/30 03:26:18;;;;;;;1.50;1.20;;;7.60;94.10;;;;;;5014567;28;20482;-81
2021/04/30 03:28:44;;;;;;;1.50;1.10;;;7.60;93.80;;;;;;5030013;28;20468;-81
2021/04/30 03:31:10;;;;;;;1.50;1.20;;;7.60;94.00;;;;;;5025550;28;21662;-80
2021/04/30 03:33:37;;;;;;;1.50;1.20;;;7.60;94.10;;;;;;5028709;28;20475;-80
2021/04/30 03:36:05;;;;;;;1.50;1.20;;;7.60;94.10;;;;;;5004810;28;20731;-82
2021/04/30 03:38:33;;;;;;;1.50;1.20;;;7.60;94.20;;;;;;5040186;28;20486;-81
2021/04/30 03:40:59;;;;;;;1.50;1.20;;;7.60;94.20;;;;;;5013281;28;20572;-81
2021/04/30 03:43:25;;;;;;;1.50;1.10;;;7.50;94.40;;;;;;5035404;28;20523;-81
2021/04/30 03:45:51;;;;;;;1.50;1.20;;;7.50;94.30;;;;;;5006732;28;20465;-81
2021/04/30 03:48:18;;;;;;;1.50;1.20;;;7.50;94.40;;;;;;5040744;28;20498;-80
2021/04/30 03:50:44;;;;;;;1.50;1.10;;;7.50;94.30;;;;;;5027997;28;20545;-80
2021/04/30 03:53:11;;;;;;;1.60;1.50;;;7.50;94.30;;;;;;5036830;28;20474;-80
2021/04/30 03:55:38;;;;;;;1.50;1.10;;;7.50;94.40;;;;;;5030494;28;20548;-80
2021/04/30 03:58:04;;;;;;;1.50;1.10;;;7.50;94.30;;;;;;5038773;28;21012;-80
2021/04/30 04:00:31;;;;;;;1.50;1.10;;;7.50;94.30;;;;;;5025330;28;20491;-80
2021/04/30 04:03:00;;;;;;;1.50;1.27;;;7.50;94.30;;;;;;5025688;28;20475;-80
2021/04/30 04:05:27;;;;;;;1.50;1.10;;;7.50;94.30;;;;;;5027061;28;20468;-80
2021/04/30 04:07:53;;;;;;;1.50;1.20;;;7.50;94.20;;;;;;5033303;28;20781;-80
2021/04/30 04:10:19;;;;;;;1.50;1.20;;;7.50;94.20;;;;;;5017298;28;20551;-80
2021/04/30 04:12:51;;;;;;;1.50;1.20;;;7.50;94.30;;;;;;5030743;28;20753;-80
2021/04/30 04:15:28;;;;;;;;;;;;;;;;;;;;;
2021/04/30 04:21:10;;;;;;;1.50;1.20;;;7.60;94.70;;;;;;5012171;28;20470;-80
2021/04/30 04:23:37;;;;;;;1.50;1.20;;;7.60;94.30;;;;;;5032802;28;20464;-81
2021/04/30 04:26:09;;;;;;;1.50;1.10;;;7.60;94.50;;;;;;5025434;28;20447;-82
2021/04/30 04:28:36;;;;;;;1.50;1.20;;;7.60;94.70;;;;;;5038968;28;20464;-81
2021/04/30 04:31:03;;;;;;;1.50;1.20;;;7.60;94.30;;;;;;5017650;28;20495;-82
2021/04/30 04:33:31;;;;;;;1.50;1.20;;;7.60;94.40;;;;;;5039339;28;20459;-81
2021/04/30 04:35:58;;;;;;;1.50;1.20;;;7.60;94.10;;;;;;5024039;28;20497;-81
2021/04/30 04:38:26;;;;;;;1.50;1.10;;;7.60;93.80;;;;;;5042876;28;20986;-82
2021/04/30 04:40:53;;;;;;;1.50;1.20;;;7.60;94.10;;;;;;5016846;28;20508;-80
2021/04/30 04:43:19;;;;;;;1.50;1.20;;;7.60;94.00;;;;;;5046629;28;20455;-82
2021/04/30 04:45:47;;;;;;;1.50;1.20;;;7.60;94.10;;;;;;5031998;28;20475;-81
2021/04/30 04:48:13;;;;;;;1.50;1.10;;;7.60;94.20;;;;;;4995179;28;20539;-79
2021/04/30 04:50:40;;;;;;;1.50;1.20;;;7.60;94.10;;;;;;4998173;28;20539;-82
2021/04/30 04:53:06;;;;;;;1.50;1.13;;;7.60;94.10;;;;;;5037546;28;20523;-81
2021/04/30 04:55:33;;;;;;;1.50;1.10;;;7.60;93.80;;;;;;5028285;28;20467;-80
2021/04/30 04:57:59;;;;;;;1.50;1.20;;;7.60;94.10;;;;;;5024143;28;20491;-81
2021/04/30 05:00:26;;;;;;;1.50;1.20;;;7.60;94.30;;;;;;5021295;28;20590;-80
2021/04/30 05:02:54;;;;;;;1.50;1.20;;;7.60;93.90;;;;;;5025960;28;21131;-81
2021/04/30 05:05:20;;;;;;;1.50;1.10;;;7.70;93.90;;;;;;5028452;28;21057;-81
2021/04/30 05:07:46;;;;;;;1.50;1.10;;;7.70;93.60;;;;;;5023165;28;20507;-82
2021/04/30 05:10:14;;;;;;;1.50;1.20;;;7.70;93.90;;;;;;4997942;28;20554;-80
2021/04/30 05:12:40;;;;;;;1.50;1.20;;;7.70;93.80;;;;;;5024064;28;20483;-79
2021/04/30 05:15:07;;;;;;;2.10;1.90;;;7.70;94.10;;;;;;5030969;28;21025;-80
2021/04/30 05:17:34;;;;;;;1.50;1.20;;;7.60;94.10;;;;;;5028404;28;20511;-82
2021/04/30 05:20:01;;;;;;;1.50;1.23;;;7.60;93.80;;;;;;5000917;28;20512;-80
2021/04/30 05:22:27;;;;;;;1.50;1.17;;;7.60;94.30;;;;;;5019577;28;21124;-81
2021/04/30 05:24:54;;;;;;;1.50;1.30;;;7.70;94.10;;;;;;5026377;28;20467;-80
2021/04/30 05:27:20;;;;;;;1.50;1.20;;;7.70;94.40;;;;;;5025038;28;20588;-80
2021/04/30 05:29:47;;;;;;;1.50;1.20;;;7.70;94.30;;;;;;5008922;28;21035;-79
2021/04/30 05:32:13;;;;;;;1.50;1.20;;;7.70;94.60;;;;;;5013986;28;20569;-80
2021/04/30 05:34:40;;;;;;;1.50;1.20;;;7.70;94.70;;;;;;5029586;28;20603;-82
2021/04/30 05:37:08;;;;;;;1.50;1.20;;;7.70;94.70;;;;;;5017791;28;20483;-80
2021/04/30 05:39:35;;;;;;;1.50;1.10;;;7.70;94.90;;;;;;5021565;28;20498;-80
2021/04/30 05:42:01;;;;;;;1.50;1.10;;;7.70;95.30;;;;;;5017228;28;20684;-80
2021/04/30 05:44:27;;;;;;;1.50;1.20;;;7.70;96.20;;;;;;5009919;28;20501;-83
2021/04/30 05:46:54;;;;;;;1.50;1.10;;;7.70;96.50;;;;;;5014131;28;21113;-81
2021/04/30 05:49:20;;;;;;;1.93;1.73;;;7.60;97.10;;;;;;5022836;28;20459;-82
2021/04/30 05:51:47;;;;;;;1.50;1.20;;;7.60;97.00;;;;;;5017158;28;20494;-82
2021/04/30 05:54:14;;;;;;;1.50;1.10;;;7.60;97.70;;;;;;5031531;28;20467;-82
2021/04/30 05:56:40;;;;;;;1.50;1.20;;;7.60;97.90;;;;;;5027102;28;20474;-82
2021/04/30 05:59:07;;;;;;;1.50;1.20;;;7.60;97.50;;;;;;5032055;28;20982;-83
2021/04/30 06:01:33;;;;;;;1.50;1.30;;;7.60;97.20;;;;;;5011806;28;20481;-81
2021/04/30 06:04:00;;;;;;;1.50;1.20;;;7.60;97.10;;;;;;5033689;28;20497;-81
2021/04/30 06:06:26;;;;;;;1.50;1.20;;;7.60;98.20;;;;;;5022269;28;20483;-81
2021/04/30 06:08:53;;;;;;;1.50;1.20;;;7.60;98.20;;;;;;5034222;28;20956;-82
2021/04/30 06:11:20;;;;;;;1.50;1.20;;;7.70;98.10;;;;;;5016890;28;20474;-82
2021/04/30 06:13:46;;;;;;;1.50;1.10;;;7.70;98.20;;;;;;5037679;28;20483;-81
2021/04/30 06:16:12;;;;;;;1.50;1.20;;;7.70;98.20;;;;;;5018521;28;21941;-82
2021/04/30 06:18:39;;;;;;;1.50;1.20;;;7.70;98.20;;;;;;5035656;28;20482;-82
2021/04/30 06:21:05;;;;;;;1.50;1.20;;;7.70;98.20;;;;;;5019470;28;20763;-81
2021/04/30 06:23:32;;;;;;;1.50;1.10;;;7.70;98.20;;;;;;5034850;28;20465;-81
2021/04/30 06:25:58;;;;;;;1.50;1.17;;;7.80;98.20;;;;;;5010389;28;20468;-81
2021/04/30 06:28:25;;;;;;;1.50;1.20;;;7.80;98.20;;;;;;5034386;28;20718;-80
2021/04/30 06:30:52;;;;;;;1.50;1.20;;;7.80;98.20;;;;;;5023057;28;20645;-82
2021/04/30 06:33:18;;;;;;;1.50;1.20;;;7.90;98.20;;;;;;5041209;28;20517;-81
2021/04/30 06:35:44;;;;;;;1.50;1.17;;;7.90;98.20;;;;;;5018755;28;20530;-81
2021/04/30 06:38:10;;;;;;;1.50;1.20;;;7.90;98.20;;;;;;5031636;28;20483;-80
2021/04/30 06:40:37;;;;;;;1.50;1.20;;;7.90;98.20;;;;;;5030703;28;20769;-81
2021/04/30 06:43:03;;;;;;;1.50;1.20;;;8.00;98.20;;;;;;5027828;28;20900;-80
2021/04/30 06:45:31;;;;;;;1.50;1.20;;;8.00;98.20;;;;;;5019378;28;20472;-80
2021/04/30 06:47:57;;;;;;;1.50;1.20;;;8.00;98.20;;;;;;5020166;28;20885;-80
2021/04/30 06:50:23;;;;;;;1.50;1.17;;;8.00;98.20;;;;;;5022947;28;20510;-79
2021/04/30 06:52:51;;;;;;;1.50;1.10;;;8.10;98.20;;;;;;5030511;28;20486;-80
2021/04/30 06:55:18;;;;;;;1.50;1.20;;;8.10;98.20;;;;;;5013160;28;20534;-80
2021/04/30 06:57:44;;;;;;;1.50;1.10;;;8.20;98.20;;;;;;5026086;28;20504;-79
2021/04/30 07:00:11;;;;;;;1.50;1.17;;;8.20;98.20;;;;;;5032196;28;20854;-80
2021/04/30 07:02:38;;;;;;;1.50;1.10;;;8.20;98.20;;;;;;5023321;28;20475;-80
2021/04/30 07:05:06;;;;;;;1.50;1.10;;;8.20;98.20;;;;;;5020649;28;20533;-79
2021/04/30 07:07:34;;;;;;;1.50;1.10;;;8.20;98.20;;;;;;5031517;28;20558;-79
2021/04/30 07:10:00;;;;;;;1.50;1.30;;;8.20;98.20;;;;;;5030217;28;20505;-80
2021/04/30 07:12:26;;;;;;;1.50;1.30;;;8.20;98.20;;;;;;5023750;28;20554;-80
2021/04/30 07:14:53;;;;;;;1.50;1.10;;;8.30;98.20;;;;;;5028116;28;20523;-80
2021/04/30 07:17:19;;;;;;;1.50;1.10;;;8.30;98.20;;;;;;5024297;28;20542;-81
2021/04/30 07:19:46;;;;;;;1.50;1.10;;;8.40;98.20;;;;;;5027195;28;20490;-80
2021/04/30 07:22:14;;;;;;;1.50;1.10;;;8.40;98.20;;;;;;5024463;28;20541;-80
2021/04/30 07:24:40;;;;;;;1.50;1.10;;;8.40;98.20;;;;;;5031503;28;20609;-80
2021/04/30 07:27:09;;;;;;;1.50;1.20;;;8.40;98.20;;;;;;5028116;28;20508;-80
2021/04/30 07:29:36;;;;;;;1.50;1.13;;;8.40;98.20;;;;;;5029854;28;20507;-79
2021/04/30 07:32:03;;;;;;;1.50;1.10;;;8.50;98.20;;;;;;5018553;28;21096;-80
2021/04/30 07:34:29;;;;;;;1.50;1.10;;;8.40;98.20;;;;;;5026355;28;20458;-79
2021/04/30 07:36:56;;;;;;;1.50;1.20;;;8.50;98.20;;;;;;5022306;28;20481;-79
2021/04/30 07:39:23;;;;;;;1.50;1.10;;;8.50;98.20;;;;;;5030626;28;20634;-80
2021/04/30 07:41:50;;;;;;;1.50;1.20;;;8.50;98.20;;;;;;5013231;28;20475;-80
2021/04/30 07:44:16;;;;;;;1.50;1.10;;;8.60;98.20;;;;;;5030811;28;20812;-80
2021/04/30 07:46:42;;;;;;;1.50;1.07;;;8.50;98.20;;;;;;5019800;28;20841;-79
2021/04/30 07:49:09;;;;;;;1.50;1.10;;;8.60;98.20;;;;;;5035136;28;20461;-79
2021/04/30 07:51:35;;;;;;;1.50;1.20;;;8.60;98.20;;;;;;5014488;28;20646;-77
2021/04/30 07:54:02;;;;;;;1.50;1.10;;;8.70;98.20;;;;;;5019956;28;20510;-79
2021/04/30 07:56:29;;;;;;;1.50;1.10;;;8.70;98.20;;;;;;5012524;28;20601;-80
2021/04/30 07:58:55;;;;;;;1.50;1.10;;;8.80;98.20;;;;;;5029858;28;20471;-79
2021/04/30 08:01:21;;;;;;;1.50;1.10;;;8.90;98.20;;;;;;5015169;28;20512;-79
2021/04/30 08:03:48;;;;;;;1.50;1.07;;;8.90;98.20;;;;;;5029935;28;20470;-80
2021/04/30 08:06:14;;;;;;;1.50;1.10;;;8.90;98.20;;;;;;5014073;28;20475;-79
2021/04/30 08:08:40;;;;;;;1.50;1.10;;;8.90;98.20;;;;;;5023225;28;20524;-80
2021/04/30 08:11:08;;;;;;;1.50;1.20;;;8.90;98.20;;;;;;5018625;28;20484;-79
2021/04/30 08:13:35;;;;;;;1.50;1.00;;;8.90;98.20;;;;;;5032612;28;20484;-80
2021/04/30 08:16:01;;;;;;;1.50;1.10;;;8.90;98.20;;;;;;5018284;28;20866;-79
2021/04/30 08:18:30;;;;;;;1.50;1.10;;;8.90;98.20;;;;;;5042652;28;20484;-79
2021/04/30 08:20:57;;;;;;;1.50;1.10;;;8.90;98.20;;;;;;5018867;28;20494;-78
2021/04/30 08:23:23;;;;;;;1.50;1.20;;;9.00;98.20;;;;;;5039032;28;20464;-78
2021/04/30 08:25:49;;;;;;;1.50;1.10;;;9.00;98.20;;;;;;5016825;28;20482;-80
2021/04/30 08:28:16;;;;;;;1.50;1.00;;;9.10;98.20;;;;;;5017785;28;20472;-79
2021/04/30 08:30:43;;;;;;;1.50;1.13;;;9.10;98.20;;;;;;5018277;28;20491;-80
2021/04/30 08:33:09;;;;;;;1.50;1.10;;;9.10;98.20;;;;;;5026342;28;20567;-80
2021/04/30 08:35:36;;;;;;;1.50;1.10;;;9.10;98.20;;;;;;5027538;28;20551;-79
2021/04/30 08:38:04;;;;;;;1.50;1.20;;;9.10;98.20;;;;;;5031930;28;20486;-79
2021/04/30 08:40:31;;;;;;;1.50;1.10;;;9.10;98.20;;;;;;5022709;28;20483;-79
2021/04/30 08:42:58;;;;;;;1.50;1.30;;;9.20;98.20;;;;;;5021552;28;20486;-80
2021/04/30 08:45:26;;;;;;;1.50;1.10;;;9.20;98.20;;;;;;5023298;28;20517;-79
2021/04/30 08:47:53;;;;;;;1.50;1.07;;;9.20;98.20;;;;;;5025462;28;20482;-78
2021/04/30 08:50:20;;;;;;;1.50;1.00;;;9.30;98.20;;;;;;5022192;28;20573;-79
2021/04/30 08:52:47;;;;;;;1.50;1.10;;;9.30;98.20;;;;;;5028482;28;20628;-79
2021/04/30 08:55:16;;;;;;;1.47;1.00;;;9.30;98.20;;;;;;5024754;28;21296;-80
2021/04/30 08:57:42;;;;;;;1.50;1.00;;;9.20;98.20;;;;;;5035682;28;21328;-79
2021/04/30 09:00:10;;;;;;;1.50;1.20;;;9.20;98.20;;;;;;5017316;28;20511;-79
2021/04/30 09:02:38;;;;;;;1.50;1.10;;;9.30;98.20;;;;;;5022874;28;20483;-79
2021/04/30 09:05:07;;;;;;;1.50;1.10;;;9.30;98.20;;;;;;5015479;28;20756;-79
2021/04/30 09:07:39;;;;;;;1.50;1.10;;;9.40;98.10;;;;;;5030241;28;20487;-78
2021/04/30 09:10:07;;;;;;;1.90;1.63;;;9.40;98.20;;;;;;5014826;28;20480;-79
2021/04/30 09:12:33;;;;;;;1.50;1.10;;;9.50;98.00;;;;;;5023133;28;20482;-80
2021/04/30 09:15:00;;;;;;;1.50;1.10;;;9.50;97.70;;;;;;5027061;28;20463;-78
2021/04/30 09:17:28;;;;;;;1.50;1.10;;;9.50;96.90;;;;;;5027266;28;20491;-79
2021/04/30 09:19:59;;;;;;;1.50;1.10;;;9.50;97.10;;;;;;5025379;28;20480;-79
2021/04/30 09:22:26;;;;;;;1.50;1.07;;;9.50;96.80;;;;;;5019348;28;20866;-80
2021/04/30 09:24:54;;;;;;;1.50;1.10;;;9.50;96.80;;;;;;5024762;28;20884;-80
2021/04/30 09:27:31;;;;;;;1.50;1.00;;;9.60;96.80;;;;;;5029190;28;20547;-81
2021/04/30 09:30:13;;;;;;;1.50;1.10;;;9.70;96.20;;;;;;5029382;28;20502;-80
2021/04/30 09:33:01;;;;;;;1.50;1.10;;;9.80;95.70;;;;;;5022754;28;20645;-81
2021/04/30 09:35:28;;;;;;;1.50;1.10;;;9.90;95.90;;;;;;5019103;28;20463;-80
2021/04/30 09:37:56;;;;;;;1.50;1.10;;;9.90;95.30;;;;;;5028421;28;20529;-80
2021/04/30 09:40:26;;;;;;;1.60;1.10;;;10.00;95.60;;;;;;5016555;28;20486;-81
2021/04/30 09:43:02;;;;;;;1.50;1.10;;;10.10;95.40;;;;;;5025815;28;20573;-81
2021/04/30 09:45:28;;;;;;;1.50;1.00;;;10.30;95.20;;;;;;5017918;28;20471;-81
2021/04/30 09:47:58;;;;;;;1.50;1.10;;;10.40;94.20;;;;;;5024477;28;20993;-80
2021/04/30 09:50:26;;;;;;;1.50;1.00;;;10.50;93.80;;;;;;5020100;28;20480;-80
2021/04/30 09:52:54;;;;;;;1.50;1.00;;;10.60;94.20;;;;;;5025661;28;20545;-81
2021/04/30 09:55:21;;;;;;;1.50;1.00;;;10.70;94.00;;;;;;5023663;28;20486;-80
2021/04/30 09:57:48;;;;;;;1.50;1.00;;;10.70;93.80;;;;;;5025968;28;20498;-80
2021/04/30 10:00:16;;;;;;;1.50;1.10;;;10.80;92.90;;;;;;5023785;28;20495;-80
2021/04/30 10:02:44;;;;;;;1.50;1.00;;;10.80;92.50;;;;;;5028831;28;20507;-82
2021/04/30 10:05:13;;;;;;;1.50;1.00;;;10.80;91.90;;;;;;5018686;28;20493;-81
2021/04/30 10:07:41;;;;;;;1.50;1.00;;;10.70;91.60;;;;;;4995667;28;21078;-78
2021/04/30 10:10:12;;;;;;;1.50;1.00;;;10.70;91.80;;;;;;5002260;28;20489;-81
2021/04/30 10:12:40;;;;;;;1.50;1.10;;;10.80;92.30;;;;;;5008066;28;20484;-81
2021/04/30 10:15:09;;;;;;;1.50;1.10;;;10.80;92.60;;;;;;5003520;28;20468;-81
2021/04/30 10:17:36;;;;;;;1.50;1.10;;;10.90;92.30;;;;;;4999770;28;20480;-81
2021/04/30 10:20:04;;;;;;;1.50;1.00;;;11.00;91.80;;;;;;5024249;28;20495;-79
2021/04/30 10:22:33;;;;;;;1.50;1.00;;;11.10;91.20;;;;;;5004544;28;20491;-79
2021/04/30 10:25:01;;;;;;;1.50;1.00;;;11.10;90.80;;;;;;5024031;28;20457;-80
2021/04/30 10:27:30;;;;;;;1.50;0.90;;;11.20;91.10;;;;;;5010003;28;20565;-79
2021/04/30 10:30:12;;;;;;;1.50;1.10;;;11.20;90.90;;;;;;5000041;28;20602;-79
2021/04/30 10:32:45;;;;;;;1.50;1.00;;;11.30;90.40;;;;;;5002376;28;20476;-81
2021/04/30 10:35:12;;;;;;;1.50;1.10;;;11.20;90.20;;;;;;5012005;28;20544;-80
2021/04/30 10:37:42;;;;;;;1.50;1.00;;;11.10;91.10;;;;;;5017140;28;20889;-81
2021/04/30 10:40:12;;;;;;;1.50;1.00;;;11.20;91.10;;;;;;5022046;28;20796;-81
2021/04/30 10:42:44;;;;;;;1.50;1.00;;;11.30;91.50;;;;;;5016886;28;20476;-80
2021/04/30 10:45:14;;;;;;;1.50;1.10;;;11.40;90.80;;;;;;5028954;28;20459;-81
2021/04/30 10:47:41;;;;;;;1.50;1.00;;;11.60;90.60;;;;;;5027056;28;20570;-81
2021/04/30 10:50:14;;;;;;;1.70;1.50;;;11.70;90.40;;;;;;5003381;28;20488;-80
2021/04/30 10:52:41;;;;;;;1.50;1.00;;;12.00;90.10;;;;;;5018157;28;20557;-81
2021/04/30 10:55:19;;;;;;;1.50;1.00;;;12.20;89.40;;;;;;5028455;28;20492;-81
2021/04/30 10:57:57;;;;;;;1.50;1.00;;;12.30;88.70;;;;;;5024236;28;20475;-80
2021/04/30 11:00:36;;;;;;;1.50;1.00;;;12.50;87.70;;;;;;5022292;28;20490;-81
2021/04/30 11:03:20;;;;;;;1.50;1.00;;;12.60;87.60;;;;;;5030619;28;20842;-80
2021/04/30 11:05:55;;;;;;;1.50;1.00;;;12.70;87.40;;;;;;5021047;28;20555;-81
2021/04/30 11:08:48;;;;;;;1.50;1.00;;;12.90;87.20;;;;;;5007990;28;20475;-81
2021/04/30 11:11:15;;;;;;;1.50;1.00;;;13.00;86.10;;;;;;5019060;28;20496;-80
2021/04/30 11:14:02;;;;;;;1.50;1.00;;;13.20;86.90;;;;;;5031516;28;20527;-80
2021/04/30 11:16:40;;;;;;;1.50;1.00;;;13.30;84.90;;;;;;5019179;28;20798;-80
2021/04/30 11:19:06;;;;;;;1.50;0.90;;;13.40;85.40;;;;;;5029354;28;20558;-80
2021/04/30 11:21:45;;;;;;;2.17;1.97;;;13.50;85.00;;;;;;5019356;28;20485;-80
2021/04/30 11:24:31;;;;;;;1.50;1.00;;;13.60;84.40;;;;;;5023492;28;20460;-80
2021/04/30 11:27:33;;;;;;;1.50;0.90;;;13.60;84.20;;;;;;5019149;28;20487;-82
2021/04/30 11:30:30;;;;;;;1.50;1.00;;;13.60;84.60;;;;;;5014186;28;20499;-80
2021/04/30 11:33:00;;;;;;;1.50;1.00;;;13.70;84.10;;;;;;5015848;28;20490;-81
2021/04/30 11:35:28;;;;;;;1.50;1.10;;;13.70;83.70;;;;;;5017270;28;20478;-79
2021/04/30 11:37:55;;;;;;;1.50;1.10;;;13.70;83.80;;;;;;5020452;28;20483;-80
2021/04/30 11:40:24;;;;;;;1.50;1.00;;;13.80;84.50;;;;;;5007300;28;20607;-78
2021/04/30 11:43:03;;;;;;;1.50;0.90;;;14.00;84.30;;;;;;5023969;28;20509;-79
2021/04/30 11:45:30;;;;;;;1.50;1.00;;;14.10;83.40;;;;;;5017813;28;20536;-80
2021/04/30 11:47:58;;;;;;;1.50;0.90;;;14.20;83.00;;;;;;5020821;28;20791;-79
2021/04/30 11:50:24;;;;;;;1.50;0.97;;;14.20;81.90;;;;;;5022704;28;21366;-80
2021/04/30 11:52:53;;;;;;;1.50;1.00;;;14.20;82.60;;;;;;5030983;28;20490;-80
2021/04/30 11:55:21;;;;;;;1.50;1.00;;;14.10;82.70;;;;;;5033420;28;20487;-80
2021/04/30 11:57:54;;;;;;;1.50;1.00;;;14.20;82.30;;;;;;5032843;28;20581;-80
2021/04/30 12:00:23;;;;;;;1.50;0.90;;;14.10;82.40;;;;;;5028555;28;20664;-80
2021/04/30 12:03:03;;;;;;;1.50;1.00;;;14.10;82.10;;;;;;5037652;28;20486;-79
2021/04/30 12:05:31;;;;;;;1.47;1.00;;;14.10;82.20;;;;;;5019238;28;20882;-80
2021/04/30 12:07:58;;;;;;;1.50;1.00;;;14.10;82.20;;;;;;4990938;28;20484;-80
2021/04/30 12:10:26;;;;;;;1.50;0.90;;;14.10;82.00;;;;;;5002413;28;20487;-80
2021/04/30 12:12:53;;;;;;;1.43;1.00;;;14.20;82.50;;;;;;5025638;28;20495;-80
2021/04/30 12:15:27;;;;;;;1.50;1.00;;;14.10;82.30;;;;;;5006402;28;20559;-80
2021/04/30 12:17:53;;;;;;;1.50;0.90;;;14.10;82.50;;;;;;5020306;28;20507;-80
2021/04/30 12:20:24;;;;;;;1.50;1.10;;;14.10;82.50;;;;;;4992894;28;20525;-80
2021/04/30 12:22:54;;;;;;;1.50;0.97;;;14.20;82.20;;;;;;5024771;28;20834;-80
2021/04/30 12:25:35;;;;;;;1.50;0.90;;;14.40;82.20;;;;;;5007609;28;20472;-79
2021/04/30 12:28:20;;;;;;;1.50;1.03;;;14.60;81.30;;;;;;5017207;28;20498;-80
2021/04/30 12:30:49;;;;;;;1.50;1.00;;;14.80;81.60;;;;;;5004328;28;20488;-80
2021/04/30 12:33:25;;;;;;;1.60;1.30;;;14.90;80.20;;;;;;5026091;28;20496;-81
2021/04/30 12:35:53;;;;;;;1.50;1.00;;;15.00;79.30;;;;;;4996777;28;20468;-80
2021/04/30 12:38:20;;;;;;;1.50;1.00;;;15.00;79.10;;;;;;5008416;28;20474;-79
2021/04/30 12:40:47;;;;;;;1.53;1.20;;;15.10;80.20;;;;;;5002934;28;20550;-80
2021/04/30 12:43:13;;;;;;;1.50;0.90;;;15.20;80.10;;;;;;5018579;28;20556;-80
2021/04/30 12:45:41;;;;;;;1.50;0.90;;;15.40;79.70;;;;;;5019737;28;20470;-79
2021/04/30 12:48:10;;;;;;;1.50;1.00;;;15.50;78.60;;;;;;5018206;28;20476;-79
2021/04/30 12:50:36;;;;;;;1.57;0.97;;;15.50;78.20;;;;;;5023083;28;20886;-80
2021/04/30 12:53:04;;;;;;;1.50;0.90;;;15.60;78.20;;;;;;5007852;28;20566;-79
2021/04/30 12:55:32;;;;;;;1.50;0.97;;;15.80;79.50;;;;;;5017905;28;20496;-80
2021/04/30 12:58:01;;;;;;;1.50;0.90;;;16.30;79.40;;;;;;5027250;28;20525;-79
2021/04/30 13:00:30;;;;;;;1.50;0.93;;;16.80;77.40;;;;;;5025015;28;20497;-79
2021/04/30 13:02:56;;;;;;;1.50;0.90;;;17.00;75.70;;;;;;5013209;28;20488;-79
2021/04/30 13:05:24;;;;;;;1.50;0.90;;;17.10;75.90;;;;;;5016598;28;20530;-79